sensor_id;sensor_type;location;lat;lon;timestamp;temperature;humidity
19258;DHT22;9763;48.780;9.212;2024-02-15T00:01:14;14.70;83.90
19258;DHT22;9763;48.780;9.212;2024-02-15T00:04:38;14.70;83.90
19258;DHT22;9763;48.780;9.212;2024-02-15T00:08:02;14.60;83.90
19258;DHT22;9763;48.780;9.212;2024-02-15T00:11:26;14.60;84.00
19258;DHT22;9763;48.780;9.212;2024-02-15T00:14:50;14.60;84.20
19258;DHT22;9763;48.780;9.212;2024-02-15T00:18:15;14.80;84.60
19258;DHT22;9763;48.780;9.212;2024-02-15T00:21:43;14.60;84.30
19258;DHT22;9763;48.780;9.212;2024-02-15T00:25:06;14.60;84.20
19258;DHT22;9763;48.780;9.212;2024-02-15T00:28:31;14.60;84.50
19258;DHT22;9763;48.780;9.212;2024-02-15T00:31:56;14.60;84.70
19258;DHT22;9763;48.780;9.212;2024-02-15T00:35:21;14.60;84.80
19258;DHT22;9763;48.780;9.212;2024-02-15T00:38:45;14.60;84.70
19258;DHT22;9763;48.780;9.212;2024-02-15T00:42:09;14.60;84.90
19258;DHT22;9763;48.780;9.212;2024-02-15T00:45:33;14.60;84.90
19258;DHT22;9763;48.780;9.212;2024-02-15T00:48:56;14.60;85.00
19258;DHT22;9763;48.780;9.212;2024-02-15T00:52:22;14.70;85.00
19258;DHT22;9763;48.780;9.212;2024-02-15T00:55:46;14.70;85.70
19258;DHT22;9763;48.780;9.212;2024-02-15T00:59:09;14.70;84.80
19258;DHT22;9763;48.780;9.212;2024-02-15T01:02:33;14.70;84.70
19258;DHT22;9763;48.780;9.212;2024-02-15T01:05:57;14.70;84.70
19258;DHT22;9763;48.780;9.212;2024-02-15T01:09:23;14.70;84.60
19258;DHT22;9763;48.780;9.212;2024-02-15T01:12:46;14.70;84.50
19258;DHT22;9763;48.780;9.212;2024-02-15T01:16:10;14.60;84.60
19258;DHT22;9763;48.780;9.212;2024-02-15T01:19:34;14.60;84.60
19258;DHT22;9763;48.780;9.212;2024-02-15T01:22:57;14.60;84.30
19258;DHT22;9763;48.780;9.212;2024-02-15T01:26:22;14.60;84.40
19258;DHT22;9763;48.780;9.212;2024-02-15T01:29:46;14.60;84.60
19258;DHT22;9763;48.780;9.212;2024-02-15T01:33:10;14.60;84.60
19258;DHT22;9763;48.780;9.212;2024-02-15T01:36:34;14.60;84.70
19258;DHT22;9763;48.780;9.212;2024-02-15T01:39:57;14.60;84.40
19258;DHT22;9763;48.780;9.212;2024-02-15T01:43:23;14.60;84.60
19258;DHT22;9763;48.780;9.212;2024-02-15T01:46:47;14.60;84.40
19258;DHT22;9763;48.780;9.212;2024-02-15T01:50:13;14.60;84.40
19258;DHT22;9763;48.780;9.212;2024-02-15T01:53:40;14.60;84.20
19258;DHT22;9763;48.780;9.212;2024-02-15T01:57:06;14.50;83.90
19258;DHT22;9763;48.780;9.212;2024-02-15T02:00:32;14.50;83.80
19258;DHT22;9763;48.780;9.212;2024-02-15T02:03:56;14.50;83.30
19258;DHT22;9763;48.780;9.212;2024-02-15T02:07:20;14.40;83.10
19258;DHT22;9763;48.780;9.212;2024-02-15T02:10:43;14.30;82.80
19258;DHT22;9763;48.780;9.212;2024-02-15T02:14:08;14.20;82.80
19258;DHT22;9763;48.780;9.212;2024-02-15T02:17:34;14.20;82.80
19258;DHT22;9763;48.780;9.212;2024-02-15T02:20:58;14.10;82.50
19258;DHT22;9763;48.780;9.212;2024-02-15T02:24:23;14.00;82.60
19258;DHT22;9763;48.780;9.212;2024-02-15T02:27:50;13.90;82.80
19258;DHT22;9763;48.780;9.212;2024-02-15T02:31:14;13.80;82.70
19258;DHT22;9763;48.780;9.212;2024-02-15T02:34:38;13.80;82.80
19258;DHT22;9763;48.780;9.212;2024-02-15T02:38:03;13.70;82.60
19258;DHT22;9763;48.780;9.212;2024-02-15T02:41:27;13.60;82.50
19258;DHT22;9763;48.780;9.212;2024-02-15T02:44:52;13.60;82.60
19258;DHT22;9763;48.780;9.212;2024-02-15T02:48:16;13.50;82.50
19258;DHT22;9763;48.780;9.212;2024-02-15T02:51:41;13.50;82.60
19258;DHT22;9763;48.780;9.212;2024-02-15T02:55:05;13.40;82.60
19258;DHT22;9763;48.780;9.212;2024-02-15T02:58:30;13.40;82.70
19258;DHT22;9763;48.780;9.212;2024-02-15T03:01:55;13.40;82.60
19258;DHT22;9763;48.780;9.212;2024-02-15T03:05:19;13.30;82.50
19258;DHT22;9763;48.780;9.212;2024-02-15T03:08:44;13.30;82.50
19258;DHT22;9763;48.780;9.212;2024-02-15T03:12:07;13.30;82.40
19258;DHT22;9763;48.780;9.212;2024-02-15T03:15:31;13.30;82.40
19258;DHT22;9763;48.780;9.212;2024-02-15T03:18:57;13.20;82.20
19258;DHT22;9763;48.780;9.212;2024-02-15T03:22:21;13.20;82.00
19258;DHT22;9763;48.780;9.212;2024-02-15T03:25:47;13.20;82.00
19258;DHT22;9763;48.780;9.212;2024-02-15T03:29:11;13.20;81.90
19258;DHT22;9763;48.780;9.212;2024-02-15T03:32:35;13.00;81.80
19258;DHT22;9763;48.780;9.212;2024-02-15T03:36:01;13.00;81.70
19258;DHT22;9763;48.780;9.212;2024-02-15T03:39:25;12.90;81.40
19258;DHT22;9763;48.780;9.212;2024-02-15T03:42:49;12.80;81.50
19258;DHT22;9763;48.780;9.212;2024-02-15T03:46:13;12.80;81.40
19258;DHT22;9763;48.780;9.212;2024-02-15T03:49:37;12.70;81.50
19258;DHT22;9763;48.780;9.212;2024-02-15T03:53:03;12.60;81.30
19258;DHT22;9763;48.780;9.212;2024-02-15T03:56:30;12.60;81.40
19258;DHT22;9763;48.780;9.212;2024-02-15T03:59:55;12.50;81.30
19258;DHT22;9763;48.780;9.212;2024-02-15T04:03:19;12.50;81.40
19258;DHT22;9763;48.780;9.212;2024-02-15T04:06:43;12.40;81.40
19258;DHT22;9763;48.780;9.212;2024-02-15T04:10:09;12.40;81.80
19258;DHT22;9763;48.780;9.212;2024-02-15T04:13:33;12.40;82.30
19258;DHT22;9763;48.780;9.212;2024-02-15T04:16:57;12.30;82.70
19258;DHT22;9763;48.780;9.212;2024-02-15T04:20:21;12.40;83.10
19258;DHT22;9763;48.780;9.212;2024-02-15T04:23:45;12.40;83.40
19258;DHT22;9763;48.780;9.212;2024-02-15T04:27:10;12.40;83.70
19258;DHT22;9763;48.780;9.212;2024-02-15T04:30:35;12.40;83.80
19258;DHT22;9763;48.780;9.212;2024-02-15T04:34:01;12.50;84.00
19258;DHT22;9763;48.780;9.212;2024-02-15T04:37:25;12.50;84.00
19258;DHT22;9763;48.780;9.212;2024-02-15T04:40:51;12.60;84.20
19258;DHT22;9763;48.780;9.212;2024-02-15T04:44:17;12.60;84.30
19258;DHT22;9763;48.780;9.212;2024-02-15T04:47:42;12.60;84.40
19258;DHT22;9763;48.780;9.212;2024-02-15T04:51:09;12.60;84.40
19258;DHT22;9763;48.780;9.212;2024-02-15T04:54:33;12.70;84.60
19258;DHT22;9763;48.780;9.212;2024-02-15T04:57:57;12.70;84.50
19258;DHT22;9763;48.780;9.212;2024-02-15T05:01:23;12.70;84.50
19258;DHT22;9763;48.780;9.212;2024-02-15T05:04:47;12.80;84.50
19258;DHT22;9763;48.780;9.212;2024-02-15T05:08:11;12.80;84.70
19258;DHT22;9763;48.780;9.212;2024-02-15T05:11:37;12.80;84.50
19258;DHT22;9763;48.780;9.212;2024-02-15T05:15:04;12.80;84.50
19258;DHT22;9763;48.780;9.212;2024-02-15T05:18:33;12.80;84.50
19258;DHT22;9763;48.780;9.212;2024-02-15T05:21:58;12.80;84.50
19258;DHT22;9763;48.780;9.212;2024-02-15T05:25:23;12.80;84.30
19258;DHT22;9763;48.780;9.212;2024-02-15T05:28:48;12.80;84.50
19258;DHT22;9763;48.780;9.212;2024-02-15T05:32:12;12.80;84.50
19258;DHT22;9763;48.780;9.212;2024-02-15T05:35:40;12.90;84.60
19258;DHT22;9763;48.780;9.212;2024-02-15T05:39:08;12.90;84.60
19258;DHT22;9763;48.780;9.212;2024-02-15T05:42:34;12.90;84.50
19258;DHT22;9763;48.780;9.212;2024-02-15T05:45:57;12.90;84.60
19258;DHT22;9763;48.780;9.212;2024-02-15T05:49:22;12.90;84.60
19258;DHT22;9763;48.780;9.212;2024-02-15T05:52:47;12.90;84.80
19258;DHT22;9763;48.780;9.212;2024-02-15T05:56:11;13.00;84.90
19258;DHT22;9763;48.780;9.212;2024-02-15T05:59:35;13.00;84.80
19258;DHT22;9763;48.780;9.212;2024-02-15T06:03:01;13.00;84.90
19258;DHT22;9763;48.780;9.212;2024-02-15T06:06:25;13.10;85.20
19258;DHT22;9763;48.780;9.212;2024-02-15T06:09:52;13.10;85.10
19258;DHT22;9763;48.780;9.212;2024-02-15T06:13:15;13.10;84.90
19258;DHT22;9763;48.780;9.212;2024-02-15T06:16:42;13.20;84.80
19258;DHT22;9763;48.780;9.212;2024-02-15T06:20:07;13.20;84.60
19258;DHT22;9763;48.780;9.212;2024-02-15T06:23:33;13.20;84.30
19258;DHT22;9763;48.780;9.212;2024-02-15T06:26:59;13.20;84.00
19258;DHT22;9763;48.780;9.212;2024-02-15T06:30:24;13.20;83.60
19258;DHT22;9763;48.780;9.212;2024-02-15T06:34:05;13.10;83.50
19258;DHT22;9763;48.780;9.212;2024-02-15T06:37:47;13.00;83.30
19258;DHT22;9763;48.780;9.212;2024-02-15T06:41:28;13.30;83.90
19258;DHT22;9763;48.780;9.212;2024-02-15T06:44:53;13.00;83.70
19258;DHT22;9763;48.780;9.212;2024-02-15T06:48:17;13.00;83.60
19258;DHT22;9763;48.780;9.212;2024-02-15T06:51:40;13.00;84.20
19258;DHT22;9763;48.780;9.212;2024-02-15T06:55:07;13.00;83.70
19258;DHT22;9763;48.780;9.212;2024-02-15T06:58:34;13.00;83.60
19258;DHT22;9763;48.780;9.212;2024-02-15T07:02:00;13.00;83.30
19258;DHT22;9763;48.780;9.212;2024-02-15T07:05:27;13.00;83.00
19258;DHT22;9763;48.780;9.212;2024-02-15T07:08:51;13.00;83.00
19258;DHT22;9763;48.780;9.212;2024-02-15T07:12:17;12.90;82.80
19258;DHT22;9763;48.780;9.212;2024-02-15T07:15:44;12.90;82.90
19258;DHT22;9763;48.780;9.212;2024-02-15T07:19:10;12.80;83.10
19258;DHT22;9763;48.780;9.212;2024-02-15T07:22:33;12.80;83.10
19258;DHT22;9763;48.780;9.212;2024-02-15T07:25:57;12.80;83.30
19258;DHT22;9763;48.780;9.212;2024-02-15T07:29:20;12.80;83.30
19258;DHT22;9763;48.780;9.212;2024-02-15T07:32:45;12.80;83.50
19258;DHT22;9763;48.780;9.212;2024-02-15T07:36:10;12.70;83.70
19258;DHT22;9763;48.780;9.212;2024-02-15T07:39:35;12.70;83.70
19258;DHT22;9763;48.780;9.212;2024-02-15T07:42:59;12.70;84.10
19258;DHT22;9763;48.780;9.212;2024-02-15T07:46:25;12.70;84.60
19258;DHT22;9763;48.780;9.212;2024-02-15T07:49:49;12.80;85.00
19258;DHT22;9763;48.780;9.212;2024-02-15T07:53:14;12.80;85.30
19258;DHT22;9763;48.780;9.212;2024-02-15T07:56:37;12.90;85.60
19258;DHT22;9763;48.780;9.212;2024-02-15T08:00:01;13.00;85.70
19258;DHT22;9763;48.780;9.212;2024-02-15T08:03:32;13.10;85.70
19258;DHT22;9763;48.780;9.212;2024-02-15T08:06:57;13.20;86.00
19258;DHT22;9763;48.780;9.212;2024-02-15T08:10:22;13.20;86.00
19258;DHT22;9763;48.780;9.212;2024-02-15T08:13:46;13.30;86.30
19258;DHT22;9763;48.780;9.212;2024-02-15T08:17:12;13.40;86.40
19258;DHT22;9763;48.780;9.212;2024-02-15T08:20:36;13.50;86.60
19258;DHT22;9763;48.780;9.212;2024-02-15T08:24:00;13.60;87.10
19258;DHT22;9763;48.780;9.212;2024-02-15T08:27:29;13.70;87.80
19258;DHT22;9763;48.780;9.212;2024-02-15T08:30:55;13.90;88.40
19258;DHT22;9763;48.780;9.212;2024-02-15T08:34:19;14.10;89.80
19258;DHT22;9763;48.780;9.212;2024-02-15T08:37:43;14.40;91.30
19258;DHT22;9763;48.780;9.212;2024-02-15T08:41:11;14.80;92.10
19258;DHT22;9763;48.780;9.212;2024-02-15T08:44:36;15.20;92.40
19258;DHT22;9763;48.780;9.212;2024-02-15T08:48:00;15.50;91.40
19258;DHT22;9763;48.780;9.212;2024-02-15T08:51:26;15.80;91.00
19258;DHT22;9763;48.780;9.212;2024-02-15T08:54:50;16.10;86.10
19258;DHT22;9763;48.780;9.212;2024-02-15T08:58:15;16.10;88.60
19258;DHT22;9763;48.780;9.212;2024-02-15T09:01:40;16.20;87.80
19258;DHT22;9763;48.780;9.212;2024-02-15T09:05:06;16.10;86.80
19258;DHT22;9763;48.780;9.212;2024-02-15T09:08:29;16.10;86.90
19258;DHT22;9763;48.780;9.212;2024-02-15T09:11:53;16.10;86.70
19258;DHT22;9763;48.780;9.212;2024-02-15T09:15:17;16.10;86.30
19258;DHT22;9763;48.780;9.212;2024-02-15T09:18:42;16.10;86.20
19258;DHT22;9763;48.780;9.212;2024-02-15T09:22:08;16.40;86.50
19258;DHT22;9763;48.780;9.212;2024-02-15T09:25:31;16.10;86.40
19258;DHT22;9763;48.780;9.212;2024-02-15T09:28:55;16.20;86.50
19258;DHT22;9763;48.780;9.212;2024-02-15T09:32:18;16.10;85.80
19258;DHT22;9763;48.780;9.212;2024-02-15T09:35:45;16.10;86.00
19258;DHT22;9763;48.780;9.212;2024-02-15T09:39:09;16.20;85.70
19258;DHT22;9763;48.780;9.212;2024-02-15T09:42:36;16.20;85.50
19258;DHT22;9763;48.780;9.212;2024-02-15T09:46:01;16.20;84.90
19258;DHT22;9763;48.780;9.212;2024-02-15T09:49:26;16.20;84.50
19258;DHT22;9763;48.780;9.212;2024-02-15T09:52:53;16.20;84.60
19258;DHT22;9763;48.780;9.212;2024-02-15T09:56:17;16.20;84.50
19258;DHT22;9763;48.780;9.212;2024-02-15T09:59:43;16.10;84.90
19258;DHT22;9763;48.780;9.212;2024-02-15T10:03:07;16.10;85.00
19258;DHT22;9763;48.780;9.212;2024-02-15T10:06:34;16.20;85.30
19258;DHT22;9763;48.780;9.212;2024-02-15T10:10:14;16.20;85.20
19258;DHT22;9763;48.780;9.212;2024-02-15T10:13:39;16.30;84.10
19258;DHT22;9763;48.780;9.212;2024-02-15T10:17:06;16.30;85.10
19258;DHT22;9763;48.780;9.212;2024-02-15T10:20:33;16.30;86.10
19258;DHT22;9763;48.780;9.212;2024-02-15T10:24:06;16.50;90.90
19258;DHT22;9763;48.780;9.212;2024-02-15T10:27:32;17.10;95.10
19258;DHT22;9763;48.780;9.212;2024-02-15T10:31:07;17.80;98.20
19258;DHT22;9763;48.780;9.212;2024-02-15T10:34:34;18.70;99.40
19258;DHT22;9763;48.780;9.212;2024-02-15T10:38:05;19.70;99.90
19258;DHT22;9763;48.780;9.212;2024-02-15T10:41:31;20.70;98.20
19258;DHT22;9763;48.780;9.212;2024-02-15T10:44:57;21.60;98.10
19258;DHT22;9763;48.780;9.212;2024-02-15T10:48:23;22.50;95.00
19258;DHT22;9763;48.780;9.212;2024-02-15T10:51:55;23.20;93.40
19258;DHT22;9763;48.780;9.212;2024-02-15T10:55:28;23.90;90.10
19258;DHT22;9763;48.780;9.212;2024-02-15T10:59:10;24.40;88.40
19258;DHT22;9763;48.780;9.212;2024-02-15T11:02:45;25.00;85.30
19258;DHT22;9763;48.780;9.212;2024-02-15T11:06:18;25.50;84.70
19258;DHT22;9763;48.780;9.212;2024-02-15T11:09:44;25.80;84.70
19258;DHT22;9763;48.780;9.212;2024-02-15T11:13:09;26.10;82.20
19258;DHT22;9763;48.780;9.212;2024-02-15T11:23:35;26.30;81.30
19258;DHT22;9763;48.780;9.212;2024-02-15T11:26:59;26.80;78.50
19258;DHT22;9763;48.780;9.212;2024-02-15T11:30:31;26.80;76.80
19258;DHT22;9763;48.780;9.212;2024-02-15T11:33:56;26.80;74.60
19258;DHT22;9763;48.780;9.212;2024-02-15T11:37:58;26.80;77.30
19258;DHT22;9763;48.780;9.212;2024-02-15T11:41:25;26.80;74.10
19258;DHT22;9763;48.780;9.212;2024-02-15T11:45:02;26.70;75.90
19258;DHT22;9763;48.780;9.212;2024-02-15T11:48:28;26.50;72.20
19258;DHT22;9763;48.780;9.212;2024-02-15T11:59:01;26.30;74.30
19258;DHT22;9763;48.780;9.212;2024-02-15T12:02:28;25.20;70.40
19258;DHT22;9763;48.780;9.212;2024-02-15T12:06:17;24.80;72.90
19258;DHT22;9763;48.780;9.212;2024-02-15T12:09:58;24.40;72.70
19258;DHT22;9763;48.780;9.212;2024-02-15T12:13:43;23.90;73.80
19258;DHT22;9763;48.780;9.212;2024-02-15T12:17:32;23.50;72.80
19258;DHT22;9763;48.780;9.212;2024-02-15T12:21:17;23.30;74.20
19258;DHT22;9763;48.780;9.212;2024-02-15T12:24:52;22.70;74.30
19258;DHT22;9763;48.780;9.212;2024-02-15T12:28:16;22.50;75.60
19258;DHT22;9763;48.780;9.212;2024-02-15T12:31:42;22.20;75.70
19258;DHT22;9763;48.780;9.212;2024-02-15T12:35:11;21.90;75.90
19258;DHT22;9763;48.780;9.212;2024-02-15T12:38:39;21.80;75.60
19258;DHT22;9763;48.780;9.212;2024-02-15T12:42:06;21.70;76.60
19258;DHT22;9763;48.780;9.212;2024-02-15T12:45:32;21.50;76.70
19258;DHT22;9763;48.780;9.212;2024-02-15T12:49:17;21.30;76.90
19258;DHT22;9763;48.780;9.212;2024-02-15T12:52:52;21.20;75.50
19258;DHT22;9763;48.780;9.212;2024-02-15T12:56:20;21.00;77.50
19258;DHT22;9763;48.780;9.212;2024-02-15T12:59:46;20.90;77.50
19258;DHT22;9763;48.780;9.212;2024-02-15T13:03:11;20.80;78.40
19258;DHT22;9763;48.780;9.212;2024-02-15T13:06:38;20.80;78.80
19258;DHT22;9763;48.780;9.212;2024-02-15T13:10:03;20.70;78.50
19258;DHT22;9763;48.780;9.212;2024-02-15T13:13:28;20.70;79.00
19258;DHT22;9763;48.780;9.212;2024-02-15T13:16:53;20.70;79.10
19258;DHT22;9763;48.780;9.212;2024-02-15T13:20:16;20.70;79.00
19258;DHT22;9763;48.780;9.212;2024-02-15T13:23:44;20.70;79.20
19258;DHT22;9763;48.780;9.212;2024-02-15T13:27:08;20.60;78.80
19258;DHT22;9763;48.780;9.212;2024-02-15T13:30:34;20.60;78.80
19258;DHT22;9763;48.780;9.212;2024-02-15T13:33:58;20.60;78.20
19258;DHT22;9763;48.780;9.212;2024-02-15T13:37:22;20.60;78.60
19258;DHT22;9763;48.780;9.212;2024-02-15T13:40:48;20.50;78.60
19258;DHT22;9763;48.780;9.212;2024-02-15T13:44:13;20.50;78.30
19258;DHT22;9763;48.780;9.212;2024-02-15T13:47:38;20.40;78.60
19258;DHT22;9763;48.780;9.212;2024-02-15T13:51:02;20.40;78.70
19258;DHT22;9763;48.780;9.212;2024-02-15T13:54:26;20.40;79.00
19258;DHT22;9763;48.780;9.212;2024-02-15T13:57:51;20.40;78.90
19258;DHT22;9763;48.780;9.212;2024-02-15T14:01:16;20.40;78.40
19258;DHT22;9763;48.780;9.212;2024-02-15T14:04:40;20.40;78.60
19258;DHT22;9763;48.780;9.212;2024-02-15T14:08:04;20.40;78.60
19258;DHT22;9763;48.780;9.212;2024-02-15T14:11:30;20.30;78.60
19258;DHT22;9763;48.780;9.212;2024-02-15T14:14:55;20.30;78.40
19258;DHT22;9763;48.780;9.212;2024-02-15T14:18:19;20.30;78.10
19258;DHT22;9763;48.780;9.212;2024-02-15T14:21:43;20.30;78.20
19258;DHT22;9763;48.780;9.212;2024-02-15T14:25:07;20.20;78.30
19258;DHT22;9763;48.780;9.212;2024-02-15T14:28:31;20.20;78.30
19258;DHT22;9763;48.780;9.212;2024-02-15T14:31:56;20.40;78.40
19258;DHT22;9763;48.780;9.212;2024-02-15T14:35:52;20.40;78.20
19258;DHT22;9763;48.780;9.212;2024-02-15T14:39:17;20.10;77.80
19258;DHT22;9763;48.780;9.212;2024-02-15T14:42:41;20.00;77.90
19258;DHT22;9763;48.780;9.212;2024-02-15T14:46:18;20.00;77.80
19258;DHT22;9763;48.780;9.212;2024-02-15T14:49:43;19.90;78.00
19258;DHT22;9763;48.780;9.212;2024-02-15T14:53:06;19.90;77.80
19258;DHT22;9763;48.780;9.212;2024-02-15T14:56:30;20.10;78.10
19258;DHT22;9763;48.780;9.212;2024-02-15T15:00:00;19.80;77.90
19258;DHT22;9763;48.780;9.212;2024-02-15T15:03:30;19.80;78.00
19258;DHT22;9763;48.780;9.212;2024-02-15T15:06:56;19.80;77.60
19258;DHT22;9763;48.780;9.212;2024-02-15T15:10:37;19.70;77.40
19258;DHT22;9763;48.780;9.212;2024-02-15T15:14:19;19.80;77.80
19258;DHT22;9763;48.780;9.212;2024-02-15T15:17:42;19.70;77.30
19258;DHT22;9763;48.780;9.212;2024-02-15T15:21:06;19.70;77.60
19258;DHT22;9763;48.780;9.212;2024-02-15T15:24:31;19.60;77.40
19258;DHT22;9763;48.780;9.212;2024-02-15T15:27:55;19.60;77.00
19258;DHT22;9763;48.780;9.212;2024-02-15T15:31:19;19.60;77.10
19258;DHT22;9763;48.780;9.212;2024-02-15T15:34:43;19.60;77.60
19258;DHT22;9763;48.780;9.212;2024-02-15T15:38:06;19.60;76.50
19258;DHT22;9763;48.780;9.212;2024-02-15T15:41:31;19.50;76.40
19258;DHT22;9763;48.780;9.212;2024-02-15T15:44:55;19.50;75.90
19258;DHT22;9763;48.780;9.212;2024-02-15T15:48:18;19.70;76.00
19258;DHT22;9763;48.780;9.212;2024-02-15T15:51:42;19.40;75.70
19258;DHT22;9763;48.780;9.212;2024-02-15T15:55:07;19.30;75.30
19258;DHT22;9763;48.780;9.212;2024-02-15T15:58:34;19.20;75.20
19258;DHT22;9763;48.780;9.212;2024-02-15T16:01:57;19.20;74.90
19258;DHT22;9763;48.780;9.212;2024-02-15T16:05:21;19.10;75.00
19258;DHT22;9763;48.780;9.212;2024-02-15T16:08:45;19.00;74.80
19258;DHT22;9763;48.780;9.212;2024-02-15T16:12:09;18.90;74.70
19258;DHT22;9763;48.780;9.212;2024-02-15T16:15:34;18.80;74.40
19258;DHT22;9763;48.780;9.212;2024-02-15T16:19:00;18.80;74.20
19258;DHT22;9763;48.780;9.212;2024-02-15T16:22:23;18.70;74.10
19258;DHT22;9763;48.780;9.212;2024-02-15T16:25:47;18.60;74.40
19258;DHT22;9763;48.780;9.212;2024-02-15T16:29:11;19.10;74.40
19258;DHT22;9763;48.780;9.212;2024-02-15T16:32:38;18.40;73.70
19258;DHT22;9763;48.780;9.212;2024-02-15T16:36:02;18.30;73.30
19258;DHT22;9763;48.780;9.212;2024-02-15T16:39:25;18.20;73.40
19258;DHT22;9763;48.780;9.212;2024-02-15T16:42:49;18.10;73.30
19258;DHT22;9763;48.780;9.212;2024-02-15T16:46:15;18.00;73.40
19258;DHT22;9763;48.780;9.212;2024-02-15T16:49:40;17.90;73.20
19258;DHT22;9763;48.780;9.212;2024-02-15T16:53:04;17.80;73.20
19258;DHT22;9763;48.780;9.212;2024-02-15T16:56:29;17.70;73.20
19258;DHT22;9763;48.780;9.212;2024-02-15T16:59:53;17.80;73.40
19258;DHT22;9763;48.780;9.212;2024-02-15T17:03:16;17.80;73.50
19258;DHT22;9763;48.780;9.212;2024-02-15T17:06:42;17.50;73.30
19258;DHT22;9763;48.780;9.212;2024-02-15T17:10:06;17.40;73.00
19258;DHT22;9763;48.780;9.212;2024-02-15T17:13:31;17.40;73.20
19258;DHT22;9763;48.780;9.212;2024-02-15T17:16:55;17.20;73.20
19258;DHT22;9763;48.780;9.212;2024-02-15T17:20:19;17.20;73.50
19258;DHT22;9763;48.780;9.212;2024-02-15T17:23:46;17.10;73.70
19258;DHT22;9763;48.780;9.212;2024-02-15T17:27:10;17.10;73.60
19258;DHT22;9763;48.780;9.212;2024-02-15T17:30:34;17.00;73.90
19258;DHT22;9763;48.780;9.212;2024-02-15T17:33:58;17.10;74.00
19258;DHT22;9763;48.780;9.212;2024-02-15T17:37:23;16.90;73.90
19258;DHT22;9763;48.780;9.212;2024-02-15T17:40:48;16.90;74.00
19258;DHT22;9763;48.780;9.212;2024-02-15T17:44:12;16.80;74.00
19258;DHT22;9763;48.780;9.212;2024-02-15T17:47:36;16.80;74.20
19258;DHT22;9763;48.780;9.212;2024-02-15T17:51:00;16.80;74.30
19258;DHT22;9763;48.780;9.212;2024-02-15T17:54:26;16.70;74.20
19258;DHT22;9763;48.780;9.212;2024-02-15T17:57:50;16.70;74.20
19258;DHT22;9763;48.780;9.212;2024-02-15T18:01:14;16.70;74.20
19258;DHT22;9763;48.780;9.212;2024-02-15T18:04:38;16.60;74.10
19258;DHT22;9763;48.780;9.212;2024-02-15T18:08:02;16.60;74.20
19258;DHT22;9763;48.780;9.212;2024-02-15T18:11:26;16.50;73.90
19258;DHT22;9763;48.780;9.212;2024-02-15T18:14:52;16.50;74.40
19258;DHT22;9763;48.780;9.212;2024-02-15T18:18:15;16.40;74.30
19258;DHT22;9763;48.780;9.212;2024-02-15T18:21:39;16.40;74.60
19258;DHT22;9763;48.780;9.212;2024-02-15T18:25:04;16.40;74.50
19258;DHT22;9763;48.780;9.212;2024-02-15T18:28:29;16.40;74.40
19258;DHT22;9763;48.780;9.212;2024-02-15T18:31:55;16.40;74.30
19258;DHT22;9763;48.780;9.212;2024-02-15T18:35:21;16.30;74.10
19258;DHT22;9763;48.780;9.212;2024-02-15T18:38:46;16.30;74.10
19258;DHT22;9763;48.780;9.212;2024-02-15T18:42:11;16.30;74.10
19258;DHT22;9763;48.780;9.212;2024-02-15T18:45:35;16.20;73.90
19258;DHT22;9763;48.780;9.212;2024-02-15T18:49:00;16.20;73.90
19258;DHT22;9763;48.780;9.212;2024-02-15T18:52:27;16.10;73.80
19258;DHT22;9763;48.780;9.212;2024-02-15T18:55:51;16.10;73.80
19258;DHT22;9763;48.780;9.212;2024-02-15T18:59:15;16.00;73.80
19258;DHT22;9763;48.780;9.212;2024-02-15T19:02:38;15.90;73.60
19258;DHT22;9763;48.780;9.212;2024-02-15T19:06:04;15.80;73.70
19258;DHT22;9763;48.780;9.212;2024-02-15T19:09:28;15.80;73.80
19258;DHT22;9763;48.780;9.212;2024-02-15T19:12:53;15.80;73.80
19258;DHT22;9763;48.780;9.212;2024-02-15T19:16:19;15.70;73.90
19258;DHT22;9763;48.780;9.212;2024-02-15T19:19:43;15.60;73.90
19258;DHT22;9763;48.780;9.212;2024-02-15T19:23:08;15.60;73.90
19258;DHT22;9763;48.780;9.212;2024-02-15T19:26:32;15.60;74.00
19258;DHT22;9763;48.780;9.212;2024-02-15T19:30:01;15.50;74.20
19258;DHT22;9763;48.780;9.212;2024-02-15T19:33:25;15.50;74.90
19258;DHT22;9763;48.780;9.212;2024-02-15T19:36:54;15.50;74.40
19258;DHT22;9763;48.780;9.212;2024-02-15T19:40:26;15.60;74.30
19258;DHT22;9763;48.780;9.212;2024-02-15T19:43:50;15.50;74.00
19258;DHT22;9763;48.780;9.212;2024-02-15T19:47:14;15.50;73.90
19258;DHT22;9763;48.780;9.212;2024-02-15T19:50:40;15.40;73.70
19258;DHT22;9763;48.780;9.212;2024-02-15T19:54:04;15.40;74.00
19258;DHT22;9763;48.780;9.212;2024-02-15T19:57:29;15.40;74.10
19258;DHT22;9763;48.780;9.212;2024-02-15T20:00:53;15.30;73.50
19258;DHT22;9763;48.780;9.212;2024-02-15T20:04:17;15.30;73.90
19258;DHT22;9763;48.780;9.212;2024-02-15T20:07:41;15.20;74.00
19258;DHT22;9763;48.780;9.212;2024-02-15T20:11:04;15.20;74.20
19258;DHT22;9763;48.780;9.212;2024-02-15T20:14:29;15.20;74.00
19258;DHT22;9763;48.780;9.212;2024-02-15T20:17:53;15.20;73.90
19258;DHT22;9763;48.780;9.212;2024-02-15T20:21:16;15.20;73.90
19258;DHT22;9763;48.780;9.212;2024-02-15T20:24:40;15.10;73.90
19258;DHT22;9763;48.780;9.212;2024-02-15T20:28:05;15.10;73.90
19258;DHT22;9763;48.780;9.212;2024-02-15T20:31:30;15.10;74.10
19258;DHT22;9763;48.780;9.212;2024-02-15T20:34:54;15.00;73.70
19258;DHT22;9763;48.780;9.212;2024-02-15T20:38:17;14.90;73.90
19258;DHT22;9763;48.780;9.212;2024-02-15T20:41:44;14.90;74.10
19258;DHT22;9763;48.780;9.212;2024-02-15T20:45:09;14.90;74.10
19258;DHT22;9763;48.780;9.212;2024-02-15T20:48:34;14.90;74.40
19258;DHT22;9763;48.780;9.212;2024-02-15T20:51:57;14.80;74.30
19258;DHT22;9763;48.780;9.212;2024-02-15T20:55:21;14.80;75.30
19258;DHT22;9763;48.780;9.212;2024-02-15T20:58:45;14.90;75.00
19258;DHT22;9763;48.780;9.212;2024-02-15T21:02:09;15.20;75.50
19258;DHT22;9763;48.780;9.212;2024-02-15T21:05:34;14.80;75.10
19258;DHT22;9763;48.780;9.212;2024-02-15T21:08:59;14.80;75.00
19258;DHT22;9763;48.780;9.212;2024-02-15T21:12:23;14.90;75.20
19258;DHT22;9763;48.780;9.212;2024-02-15T21:15:47;14.90;75.20
19258;DHT22;9763;48.780;9.212;2024-02-15T21:19:10;14.90;75.10
19258;DHT22;9763;48.780;9.212;2024-02-15T21:22:35;14.90;75.10
19258;DHT22;9763;48.780;9.212;2024-02-15T21:25:59;15.00;75.00
19258;DHT22;9763;48.780;9.212;2024-02-15T21:29:23;14.90;74.80
19258;DHT22;9763;48.780;9.212;2024-02-15T21:32:46;15.00;74.90
19258;DHT22;9763;48.780;9.212;2024-02-15T21:36:11;14.90;74.70
19258;DHT22;9763;48.780;9.212;2024-02-15T21:39:37;14.90;74.40
19258;DHT22;9763;48.780;9.212;2024-02-15T21:43:03;14.80;74.50
19258;DHT22;9763;48.780;9.212;2024-02-15T21:46:27;14.80;74.60
19258;DHT22;9763;48.780;9.212;2024-02-15T21:49:51;14.70;74.60
19258;DHT22;9763;48.780;9.212;2024-02-15T21:53:14;14.70;74.50
19258;DHT22;9763;48.780;9.212;2024-02-15T21:56:39;14.40;74.10
19258;DHT22;9763;48.780;9.212;2024-02-15T22:00:04;14.60;74.00
19258;DHT22;9763;48.780;9.212;2024-02-15T22:03:31;14.60;73.80
19258;DHT22;9763;48.780;9.212;2024-02-15T22:06:55;14.50;73.70
19258;DHT22;9763;48.780;9.212;2024-02-15T22:10:19;14.50;73.70
19258;DHT22;9763;48.780;9.212;2024-02-15T22:13:44;14.40;73.60